Time,TemperatureF,DewpointF,PressureIn,WindDirection,WindDirectionDegrees,WindSpeedMPH,WindSpeedGustMPH,Humidity,HourlyPrecipIn,Conditions,Clouds,dailyrainin,SoftwareType,DateUTC
2013-02-08 00:00:00,70.6,65.9,29.93,SSW,212,5.3,9.0,85,0.00,CLR,SKC,0.00,WeatherDisplay:10.37,2013-02-08 05:00:00,
2013-02-08 00:05:00,70.5,65.8,29.93,WSW,244,7.8,11.5,85,0.00,CLR,SKC,0.00,WeatherDisplay:10.37,2013-02-08 05:05:00,
2013-02-08 00:10:00,70.5,65.8,29.92,South,172,8.0,11.5,85,0.00,CLR,SKC,0.00,WeatherDisplay:10.37,2013-02-08 05:10:00,
2013-02-08 00:15:00,70.6,65.9,29.90,SW,214,7.9,19.6,85,0.00,CLR,SKC,0.00,WeatherDisplay:10.37,2013-02-08 05:15:00,
2013-02-08 00:20:00,70.7,66.0,29.91,WSW,245,5.6,16.1,85,0.00,CLR,SKC,0.00,WeatherDisplay:10.37,2013-02-08 05:20:00,
2013-02-08 00:25:00,70.9,66.2,29.90,SSE,154,5.3,11.5,85,0.00,CLR,SKC,0.00,WeatherDisplay:10.37,2013-02-08 05:25:00,
2013-02-08 00:30:00,71.0,66.3,29.91,SE,140,3.2,10.4,85,0.00,CLR,SKC,0.00,WeatherDisplay:10.37,2013-02-08 05:30:00,
2013-02-08 00:35:00,71.0,66.3,29.91,SSE,165,3.9,8.1,85,0.00,CLR,SKC,0.00,WeatherDisplay:10.37,2013-02-08 05:35:00,
2013-02-08 00:40:00,71.0,66.3,29.92,SW,226,4.8,9.2,85,0.00,CLR,SKC,0.00,WeatherDisplay:10.37,2013-02-08 05:40:00,
2013-02-08 00:45:00,71.1,66.0,29.92,East,85,2.6,5.8,84,0.00,CLR,SKC,0.00,WeatherDisplay:10.37,2013-02-08 05:45:00,
2013-02-08 00:50:00,71.1,66.4,29.92,West,271,2.8,5.8,85,0.00,CLR,SKC,0.00,WeatherDisplay:10.37,2013-02-08 05:50:00,
2013-02-08 00:55:00,71.1,66.4,29.92,SW,236,2.6,4.6,85,0.00,CLR,SKC,0.00,WeatherDisplay:10.37,2013-02-08 05:55:00,
2013-02-08 01:00:00,71.0,66.3,29.92,West,269,3.9,5.8,85,0.00,CLR,SKC,0.00,WeatherDisplay:10.37,2013-02-08 06:00:00,
2013-02-08 01:05:00,71.0,65.9,29.92,SW,219,3.7,9.2,84,0.00,CLR,SKC,0.00,WeatherDisplay:10.37,2013-02-08 06:05:00,
2013-02-08 01:10:00,71.1,66.0,29.92,WSW,248,2.5,6.9,84,0.00,CLR,SKC,0.00,WeatherDisplay:10.37,2013-02-08 06:10:00,
2013-02-08 01:16:00,71.1,66.0,29.93,SW,229,1.7,4.0,84,0.00,CLR,SKC,0.00,WeatherDisplay:10.37,2013-02-08 06:16:00,
2013-02-08 01:21:00,71.1,66.0,29.92,SW,217,3.7,6.9,84,0.00,CLR,SKC,0.00,WeatherDisplay:10.37,2013-02-08 06:21:00,
2013-02-08 01:26:00,71.1,66.0,29.93,West,263,3.5,6.9,84,0.00,CLR,SKC,0.00,WeatherDisplay:10.37,2013-02-08 06:26:00,
2013-02-08 01:31:00,71.1,66.0,29.93,SW,236,4.0,6.9,84,0.00,CLR,SKC,0.00,WeatherDisplay:10.37,2013-02-08 06:31:00,
2013-02-08 01:36:00,71.0,65.9,29.93,SW,233,5.8,9.2,84,0.00,CLR,SKC,0.00,WeatherDisplay:10.37,2013-02-08 06:36:00,
2013-02-08 01:41:00,71.0,66.3,29.93,SW,221,2.8,3.5,85,0.00,CLR,SKC,0.00,WeatherDisplay:10.37,2013-02-08 06:41:00,
2013-02-08 01:46:00,71.0,66.3,29.93,SW,235,3.8,5.8,85,0.00,CLR,SKC,0.00,WeatherDisplay:10.37,2013-02-08 06:46:00,
2013-02-08 01:51:00,70.9,66.2,29.93,WNW,300,4.1,6.9,85,0.00,CLR,SKC,0.00,WeatherDisplay:10.37,2013-02-08 06:51:00,
2013-02-08 01:56:00,70.8,66.1,29.92,SW,232,2.6,4.0,85,0.00,CLR,SKC,0.00,WeatherDisplay:10.37,2013-02-08 06:56:00,
2013-02-08 02:01:00,70.7,66.3,29.93,West,264,3.0,4.0,86,0.00,CLR,SKC,0.00,WeatherDisplay:10.37,2013-02-08 07:01:00,
2013-02-08 02:06:00,70.7,66.3,29.93,WSW,253,4.2,5.8,86,0.00,CLR,SKC,0.00,WeatherDisplay:10.37,2013-02-08 07:06:00,
2013-02-08 02:11:00,70.6,66.2,29.93,SW,225,4.7,10.4,86,0.00,CLR,SKC,0.00,WeatherDisplay:10.37,2013-02-08 07:11:00,
2013-02-08 02:16:00,70.5,66.4,29.92,West,273,3.0,5.8,87,0.00,BKN,SKC,0.00,WeatherDisplay:10.37,2013-02-08 07:16:00,
2013-02-08 02:21:00,70.3,66.2,29.92,WSW,258,4.0,4.0,87,0.00,BKN,SKC,0.00,WeatherDisplay:10.37,2013-02-08 07:21:00,
2013-02-08 02:26:00,70.2,66.1,29.92,WSW,248,0.9,2.3,87,0.00,BKN,SKC,0.00,WeatherDisplay:10.37,2013-02-08 07:26:00,
2013-02-08 02:31:00,70.1,66.4,29.91,WSW,248,0.3,2.3,88,0.00,BKN,SKC,0.00,WeatherDisplay:10.37,2013-02-08 07:31:00,
2013-02-08 02:36:00,69.9,66.2,29.90,West,273,0.2,1.1,88,0.00,BKN,SKC,0.00,WeatherDisplay:10.37,2013-02-08 07:36:00,
2013-02-08 02:41:00,69.8,66.1,29.90,WSW,238,0.0,0.0,88,0.00,BKN,SKC,0.00,WeatherDisplay:10.37,2013-02-08 07:41:00,
2013-02-08 02:46:00,69.6,66.2,29.90,WSW,238,0.0,0.0,89,0.00,BKN,SKC,0.00,WeatherDisplay:10.37,2013-02-08 07:46:00,
2013-02-08 02:51:00,69.4,66.0,29.90,WSW,239,0.0,1.1,89,0.00,BKN,SKC,0.00,WeatherDisplay:10.37,2013-02-08 07:51:00,
2013-02-08 02:56:00,69.3,65.9,29.91,West,273,0.8,2.3,89,0.00,BKN,SKC,0.00,WeatherDisplay:10.37,2013-02-08 07:56:00,
2013-02-08 03:01:00,69.1,66.0,29.92,West,262,0.5,1.1,90,0.00,BKN,SKC,0.00,WeatherDisplay:10.37,2013-02-08 08:01:00,
2013-02-08 03:06:00,69.0,65.9,29.92,West,273,2.2,3.5,90,0.00,BKN,SKC,0.00,WeatherDisplay:10.37,2013-02-08 08:06:00,
2013-02-08 03:11:00,69.0,65.9,29.92,WNW,290,0.4,2.0,90,0.00,BKN,SKC,0.00,WeatherDisplay:10.37,2013-02-08 08:11:00,
2013-02-08 03:16:00,68.9,65.8,29.91,SW,231,0.5,2.3,90,0.00,FEW,SKC,0.00,WeatherDisplay:10.37,2013-02-08 08:16:00,
2013-02-08 03:21:00,68.9,66.2,29.92,WSW,249,0.3,1.1,91,0.00,FEW,SKC,0.00,WeatherDisplay:10.37,2013-02-08 08:21:00,
2013-02-08 03:26:00,68.9,66.2,29.92,West,274,1.5,3.5,91,0.00,FEW,SKC,0.00,WeatherDisplay:10.37,2013-02-08 08:26:00,
2013-02-08 03:31:00,68.9,66.2,29.92,West,280,1.2,2.3,91,0.00,FEW,SKC,0.00,WeatherDisplay:10.37,2013-02-08 08:31:00,
2013-02-08 03:36:00,68.9,66.2,29.92,SW,231,1.0,2.3,91,0.00,FEW,SKC,0.00,WeatherDisplay:10.37,2013-02-08 08:36:00,
2013-02-08 03:41:00,68.9,66.2,29.92,WSW,257,0.0,1.1,91,0.00,FEW,SKC,0.00,WeatherDisplay:10.37,2013-02-08 08:41:00,
2013-02-08 03:46:00,68.8,66.1,29.92,West,262,0.5,2.3,91,0.00,FEW,SKC,0.00,WeatherDisplay:10.37,2013-02-08 08:46:00,
2013-02-08 03:51:00,68.8,66.1,29.92,WSW,246,0.0,1.1,91,0.00,FEW,SKC,0.00,WeatherDisplay:10.37,2013-02-08 08:51:00,
2013-02-08 03:56:00,68.7,66.0,29.91,SW,232,2.4,3.5,91,0.00,FEW,SKC,0.00,WeatherDisplay:10.37,2013-02-08 08:56:00,
2013-02-08 04:01:00,68.7,66.0,29.91,SW,217,1.0,2.3,91,0.00,CLR,SKC,0.00,WeatherDisplay:10.37,2013-02-08 09:01:00,
2013-02-08 04:06:00,68.6,65.9,29.92,SW,218,0.6,1.1,91,0.00,CLR,SKC,0.00,WeatherDisplay:10.37,2013-02-08 09:06:00,
2013-02-08 04:11:00,68.5,65.8,29.91,SW,235,0.3,2.3,91,0.00,CLR,SKC,0.00,WeatherDisplay:10.37,2013-02-08 09:11:00,
2013-02-08 04:16:00,68.4,65.7,29.91,SSW,210,0.2,1.1,91,0.00,CLR,SKC,0.00,WeatherDisplay:10.37,2013-02-08 09:16:00,
2013-02-08 04:21:00,68.3,65.9,29.91,SW,218,0.2,2.3,92,0.00,CLR,SKC,0.00,WeatherDisplay:10.37,2013-02-08 09:21:00,
2013-02-08 04:26:00,68.2,65.8,29.91,SW,221,0.0,0.0,92,0.00,CLR,SKC,0.00,WeatherDisplay:10.37,2013-02-08 09:26:00,
2013-02-08 04:31:00,68.0,65.6,29.91,SSW,212,0.0,1.1,92,0.00,CLR,SKC,0.00,WeatherDisplay:10.37,2013-02-08 09:31:00,
2013-02-08 04:36:00,67.9,65.5,29.91,SSW,212,0.0,0.0,92,0.00,CLR,SKC,0.00,WeatherDisplay:10.37,2013-02-08 09:36:00,
2013-02-08 04:41:00,67.8,65.4,29.91,SW,215,0.0,0.0,92,0.00,CLR,SKC,0.00,WeatherDisplay:10.37,2013-02-08 09:41:00,
2013-02-08 04:46:00,67.6,65.5,29.91,SW,215,0.0,0.0,93,0.00,CLR,SKC,0.00,WeatherDisplay:10.37,2013-02-08 09:46:00,
2013-02-08 04:51:00,67.5,65.4,29.91,SW,215,0.0,0.0,93,0.00,CLR,SKC,0.00,WeatherDisplay:10.37,2013-02-08 09:51:00,
2013-02-08 04:56:00,67.1,65.0,29.92,SW,215,0.0,0.0,93,0.00,CLR,SKC,0.00,WeatherDisplay:10.37,2013-02-08 09:56:00,
2013-02-08 05:01:00,67.0,64.9,29.92,SW,217,0.1,1.1,93,0.00,CLR,SKC,0.00,WeatherDisplay:10.37,2013-02-08 10:01:00,
2013-02-08 05:06:00,67.0,65.2,29.92,SW,217,0.7,2.3,94,0.00,CLR,SKC,0.00,WeatherDisplay:10.37,2013-02-08 10:06:00,
2013-02-08 05:11:00,67.2,65.4,29.92,SW,225,2.0,3.5,94,0.00,CLR,SKC,0.00,WeatherDisplay:10.37,2013-02-08 10:11:00,
2013-02-08 05:16:00,67.3,65.5,29.92,WSW,243,0.2,1.1,94,0.00,CLR,SKC,0.00,WeatherDisplay:10.37,2013-02-08 10:16:00,
2013-02-08 05:21:00,67.3,65.5,29.92,South,174,0.5,2.0,94,0.00,CLR,SKC,0.00,WeatherDisplay:10.37,2013-02-08 10:21:00,
2013-02-08 05:26:00,67.4,65.6,29.92,SSW,200,0.5,1.1,94,0.00,CLR,SKC,0.00,WeatherDisplay:10.37,2013-02-08 10:26:00,
2013-02-08 05:31:00,67.5,65.7,29.92,South,177,1.8,3.5,94,0.00,CLR,SKC,0.00,WeatherDisplay:10.37,2013-02-08 10:31:00,
2013-02-08 05:36:00,67.6,66.1,29.92,SSW,199,2.5,3.5,95,0.00,CLR,SKC,0.00,WeatherDisplay:10.37,2013-02-08 10:36:00,
2013-02-08 05:41:00,67.6,66.1,29.92,SSW,204,1.8,4.6,95,0.00,CLR,SKC,0.00,WeatherDisplay:10.37,2013-02-08 10:41:00,
2013-02-08 05:46:00,67.7,65.9,29.92,SSW,210,1.5,3.5,94,0.00,CLR,SKC,0.00,WeatherDisplay:10.37,2013-02-08 10:46:00,
2013-02-08 05:51:00,67.7,65.9,29.92,SW,231,0.2,1.1,94,0.00,CLR,SKC,0.00,WeatherDisplay:10.37,2013-02-08 10:51:00,
2013-02-08 05:56:00,67.7,65.9,29.92,SW,225,0.3,2.0,94,0.00,CLR,SKC,0.00,WeatherDisplay:10.37,2013-02-08 10:56:00,
2013-02-08 06:01:00,67.7,66.2,29.93,SSW,208,1.0,3.5,95,0.00,CLR,SKC,0.00,WeatherDisplay:10.37,2013-02-08 11:01:00,
2013-02-08 06:06:00,67.7,65.9,29.93,SW,221,0.4,2.3,94,0.00,CLR,SKC,0.00,WeatherDisplay:10.37,2013-02-08 11:06:00,
2013-02-08 06:11:00,67.7,66.2,29.93,SSW,210,0.0,2.3,95,0.00,CLR,SKC,0.00,WeatherDisplay:10.37,2013-02-08 11:11:00,
2013-02-08 06:16:00,67.7,66.2,29.93,SW,225,0.3,2.3,95,0.00,CLR,SKC,0.00,WeatherDisplay:10.37,2013-02-08 11:16:00,
2013-02-08 06:21:00,67.7,66.2,29.94,SW,218,0.6,2.3,95,0.00,CLR,SKC,0.00,WeatherDisplay:10.37,2013-02-08 11:21:00,
2013-02-08 06:26:00,67.7,66.2,29.93,SW,226,1.9,3.5,95,0.00,CLR,SKC,0.00,WeatherDisplay:10.37,2013-02-08 11:26:00,
2013-02-08 06:31:00,67.8,66.3,29.93,SSW,195,2.0,5.0,95,0.00,CLR,SKC,0.00,WeatherDisplay:10.37,2013-02-08 11:31:00,
2013-02-08 06:36:00,67.8,66.3,29.93,SW,226,2.6,3.5,95,0.00,CLR,SKC,0.00,WeatherDisplay:10.37,2013-02-08 11:36:00,
2013-02-08 06:41:00,68.0,66.5,29.94,SSE,159,1.6,3.5,95,0.00,CLR,SKC,0.00,WeatherDisplay:10.37,2013-02-08 11:41:00,
2013-02-08 06:46:00,68.0,66.5,29.94,SSW,193,1.9,3.0,95,0.00,CLR,SKC,0.00,WeatherDisplay:10.37,2013-02-08 11:46:00,
2013-02-08 06:51:00,68.0,66.5,29.94,SSW,195,1.4,3.5,95,0.00,CLR,SKC,0.00,WeatherDisplay:10.37,2013-02-08 11:51:00,
2013-02-08 06:56:00,68.1,66.6,29.95,SW,228,2.0,3.5,95,0.00,CLR,SKC,0.00,WeatherDisplay:10.37,2013-02-08 11:56:00,
2013-02-08 07:01:00,68.1,66.6,29.95,WSW,256,0.7,1.1,95,0.00,CLR,SKC,0.00,WeatherDisplay:10.37,2013-02-08 12:01:00,
2013-02-08 07:06:00,68.1,66.6,29.95,West,260,0.1,1.0,95,0.00,CLR,SKC,0.00,WeatherDisplay:10.37,2013-02-08 12:06:00,
2013-02-08 07:11:00,68.4,66.9,29.95,SW,231,0.8,2.3,95,0.00,CLR,SKC,0.00,WeatherDisplay:10.37,2013-02-08 12:11:00,
2013-02-08 07:16:00,68.6,67.1,29.95,West,271,1.1,2.3,95,0.00,CLR,SKC,0.00,WeatherDisplay:10.37,2013-02-08 12:16:00,
2013-02-08 07:21:00,68.8,67.6,29.96,SW,224,1.0,2.3,96,0.00,CLR,SKC,0.00,WeatherDisplay:10.37,2013-02-08 12:21:00,
2013-02-08 07:26:00,69.0,67.8,29.96,NW,307,1.4,2.3,96,0.00,CLR,SKC,0.00,WeatherDisplay:10.37,2013-02-08 12:26:00,
2013-02-08 07:31:00,69.2,67.7,29.97,North,356,2.3,3.5,95,0.00,CLR,SKC,0.00,WeatherDisplay:10.37,2013-02-08 12:31:00,
2013-02-08 07:36:00,68.9,67.4,29.97,NNE,18,0.3,3.5,95,0.00,CLR,SKC,0.00,WeatherDisplay:10.37,2013-02-08 12:36:00,
2013-02-08 07:41:00,68.9,67.4,29.97,NNW,347,2.2,3.5,95,0.00,CLR,SKC,0.00,WeatherDisplay:10.37,2013-02-08 12:41:00,
2013-02-08 07:46:00,69.1,67.6,29.97,NE,36,1.9,3.5,95,0.00,FEW,SKC,0.00,WeatherDisplay:10.37,2013-02-08 12:46:00,
2013-02-08 07:51:00,69.2,67.7,29.97,North,1,0.4,1.1,95,0.00,FEW,SKC,0.00,WeatherDisplay:10.37,2013-02-08 12:51:00,
2013-02-08 07:56:00,69.2,67.7,29.97,NNW,328,0.1,1.1,95,0.00,FEW,SKC,0.00,WeatherDisplay:10.37,2013-02-08 12:56:00,
2013-02-08 08:01:00,69.3,67.8,29.98,NW,321,0.7,1.1,95,0.00,FEW,SKC,0.00,WeatherDisplay:10.37,2013-02-08 13:01:00,
2013-02-08 08:06:00,69.6,68.1,29.98,WNW,293,0.8,1.1,95,0.00,FEW,SKC,0.00,WeatherDisplay:10.37,2013-02-08 13:06:00,
2013-02-08 08:11:00,69.8,68.6,29.99,WNW,285,1.7,2.3,96,0.00,FEW,SKC,0.00,WeatherDisplay:10.37,2013-02-08 13:11:00,
2013-02-08 08:16:00,70.3,69.1,29.99,WNW,298,2.6,3.5,96,0.00,FEW,SKC,0.00,WeatherDisplay:10.37,2013-02-08 13:16:00,
2013-02-08 08:21:00,70.5,69.0,29.99,WNW,295,3.7,3.7,95,0.00,FEW,SKC,0.00,WeatherDisplay:10.37,2013-02-08 13:21:00,
2013-02-08 08:26:00,70.7,69.2,29.99,WNW,296,2.5,3.5,95,0.00,FEW,SKC,0.00,WeatherDisplay:10.37,2013-02-08 13:26:00,
2013-02-08 08:31:00,70.8,69.0,29.99,WNW,283,2.4,4.0,94,0.00,BKN,SKC,0.00,WeatherDisplay:10.37,2013-02-08 13:31:00,
2013-02-08 08:36:00,70.7,68.9,29.99,West,280,2.6,5.8,94,0.00,BKN,SKC,0.00,WeatherDisplay:10.37,2013-02-08 13:36:00,
2013-02-08 08:41:00,70.7,68.6,29.99,WNW,294,4.1,5.8,93,0.00,BKN,SKC,0.00,WeatherDisplay:10.37,2013-02-08 13:41:00,
2013-02-08 08:46:00,70.8,68.7,30.00,WNW,283,2.0,3.5,93,0.00,BKN,SKC,0.00,WeatherDisplay:10.37,2013-02-08 13:46:00,
2013-02-08 08:51:00,70.9,68.8,30.00,West,277,4.2,6.9,93,0.00,BKN,SKC,0.00,WeatherDisplay:10.37,2013-02-08 13:51:00,
2013-02-08 08:56:00,71.1,68.7,30.00,West,274,1.8,4.0,92,0.00,BKN,SKC,0.00,WeatherDisplay:10.37,2013-02-08 13:56:00,
2013-02-08 09:01:00,71.6,69.2,30.00,WNW,297,1.8,5.8,92,0.00,OVC,SKC,0.00,WeatherDisplay:10.37,2013-02-08 14:01:00,
2013-02-08 09:06:00,71.8,68.7,30.00,West,274,3.4,4.6,90,0.00,OVC,SKC,0.00,WeatherDisplay:10.37,2013-02-08 14:06:00,
2013-02-08 09:11:00,72.0,68.9,30.00,NW,309,3.5,5.0,90,0.00,OVC,SKC,0.00,WeatherDisplay:10.37,2013-02-08 14:11:00,
2013-02-08 09:16:00,72.0,68.9,30.01,WNW,288,3.7,4.6,90,0.00,OVC,SKC,0.00,WeatherDisplay:10.37,2013-02-08 14:16:00,
2013-02-08 09:21:00,72.1,68.7,30.01,NW,309,4.1,6.0,89,0.00,OVC,SKC,0.00,WeatherDisplay:10.37,2013-02-08 14:21:00,
2013-02-08 09:26:00,72.2,68.4,30.01,WNW,295,3.9,4.6,88,0.00,OVC,SKC,0.00,WeatherDisplay:10.37,2013-02-08 14:26:00,
2013-02-08 09:31:00,72.3,68.5,30.01,NW,307,3.9,5.8,88,0.00,OVC,SKC,0.00,WeatherDisplay:10.37,2013-02-08 14:31:00,
2013-02-08 09:36:00,72.4,68.6,30.01,NW,309,3.4,5.8,88,0.00,OVC,SKC,0.00,WeatherDisplay:10.37,2013-02-08 14:36:00,
2013-02-08 09:41:00,72.4,68.3,30.01,NW,311,6.2,8.0,87,0.00,OVC,SKC,0.00,WeatherDisplay:10.37,2013-02-08 14:41:00,
2013-02-08 09:46:00,72.6,68.5,30.02,WNW,291,3.0,5.8,87,0.00,OVC,SKC,0.00,WeatherDisplay:10.37,2013-02-08 14:46:00,
2013-02-08 09:51:00,72.9,68.5,30.02,WNW,293,2.1,4.6,86,0.00,OVC,SKC,0.00,WeatherDisplay:10.37,2013-02-08 14:51:00,
2013-02-08 09:56:00,73.2,68.8,30.02,WNW,299,4.4,5.8,86,0.00,OVC,SKC,0.00,WeatherDisplay:10.37,2013-02-08 14:56:00,
2013-02-08 10:01:00,73.3,68.5,30.02,NW,307,4.4,5.0,85,0.00,OVC,SKC,0.00,WeatherDisplay:10.37,2013-02-08 15:01:00,
2013-02-08 10:06:00,73.3,68.5,30.02,NW,321,5.9,5.9,85,0.00,OVC,SKC,0.00,WeatherDisplay:10.37,2013-02-08 15:06:00,
2013-02-08 10:11:00,73.2,68.1,30.02,WNW,297,5.6,6.9,84,0.00,OVC,SKC,0.00,WeatherDisplay:10.37,2013-02-08 15:11:00,
2013-02-08 10:16:00,73.2,68.4,30.02,WNW,301,2.7,5.8,85,0.00,SCT,SKC,0.00,WeatherDisplay:10.37,2013-02-08 15:16:00,
2013-02-08 10:21:00,74.1,68.3,30.02,WNW,293,3.4,3.5,82,0.00,SCT,SKC,0.00,WeatherDisplay:10.37,2013-02-08 15:21:00,
2013-02-08 10:26:00,74.5,68.3,30.02,WNW,285,3.2,4.6,81,0.00,SCT,SKC,0.00,WeatherDisplay:10.37,2013-02-08 15:26:00,
2013-02-08 10:31:00,75.1,68.5,30.02,WNW,293,1.5,5.8,80,0.00,BKN,SKC,0.00,WeatherDisplay:10.37,2013-02-08 15:31:00,
2013-02-08 10:36:00,75.5,68.2,30.02,WSW,255,1.9,5.8,78,0.00,BKN,SKC,0.00,WeatherDisplay:10.37,2013-02-08 15:36:00,
2013-02-08 10:41:00,75.8,68.1,30.02,WNW,287,6.1,8.1,77,0.00,BKN,SKC,0.00,WeatherDisplay:10.37,2013-02-08 15:41:00,
2013-02-08 10:46:00,76.3,68.6,30.02,WNW,283,1.9,3.5,77,0.00,BKN,SKC,0.00,WeatherDisplay:10.37,2013-02-08 15:46:00,
2013-02-08 10:51:00,76.6,67.7,30.02,NW,305,3.0,4.6,74,0.00,BKN,SKC,0.00,WeatherDisplay:10.37,2013-02-08 15:51:00,
2013-02-08 10:56:00,76.8,67.9,30.02,West,276,1.7,4.0,74,0.00,BKN,SKC,0.00,WeatherDisplay:10.37,2013-02-08 15:56:00,
2013-02-08 11:01:00,77.2,67.9,30.02,WNW,285,0.6,2.3,73,0.00,FEW,SKC,0.00,WeatherDisplay:10.37,2013-02-08 16:01:00,
2013-02-08 11:06:00,77.8,68.0,30.02,WNW,287,4.3,6.9,72,0.00,FEW,SKC,0.00,WeatherDisplay:10.37,2013-02-08 16:06:00,
2013-02-08 11:11:00,77.9,66.5,30.02,NW,305,5.3,8.1,68,0.00,FEW,SKC,0.00,WeatherDisplay:10.37,2013-02-08 16:11:00,
2013-02-08 11:16:00,78.5,67.5,30.02,NW,307,3.6,5.8,69,0.00,FEW,SKC,0.00,WeatherDisplay:10.37,2013-02-08 16:16:00,
2013-02-08 11:21:00,78.3,66.4,30.02,NW,311,3.3,8.1,67,0.00,FEW,SKC,0.00,WeatherDisplay:10.37,2013-02-08 16:21:00,
2013-02-08 11:27:00,78.3,66.4,30.02,NW,323,2.7,5.0,67,0.00,FEW,SKC,0.00,WeatherDisplay:10.37,2013-02-08 16:27:00,
2013-02-08 11:32:00,78.5,65.3,30.02,NW,305,6.8,9.2,64,0.00,FEW,SKC,0.00,WeatherDisplay:10.37,2013-02-08 16:32:00,
2013-02-08 11:37:00,78.6,65.4,30.01,NW,311,2.8,6.0,64,0.00,FEW,SKC,0.00,WeatherDisplay:10.37,2013-02-08 16:37:00,
2013-02-08 11:42:00,79.2,63.6,30.01,West,277,6.8,11.5,59,0.00,FEW,SKC,0.00,WeatherDisplay:10.37,2013-02-08 16:42:00,
2013-02-08 11:47:00,79.6,63.0,30.01,WNW,291,5.9,8.1,57,0.00,FEW,SKC,0.00,WeatherDisplay:10.37,2013-02-08 16:47:00,
2013-02-08 11:52:00,79.5,62.4,30.01,NW,304,5.1,9.2,56,0.00,FEW,SKC,0.00,WeatherDisplay:10.37,2013-02-08 16:52:00,
2013-02-08 11:57:00,79.8,63.2,30.01,West,281,5.4,8.0,57,0.00,FEW,SKC,0.00,WeatherDisplay:10.37,2013-02-08 16:57:00,
2013-02-08 12:02:00,80.5,63.4,30.00,West,264,7.0,10.4,56,0.00,FEW,SKC,0.00,WeatherDisplay:10.37,2013-02-08 17:02:00,
2013-02-08 12:07:00,80.6,63.5,30.00,WNW,300,5.6,9.2,56,0.00,FEW,SKC,0.00,WeatherDisplay:10.37,2013-02-08 17:07:00,
2013-02-08 12:12:00,80.6,62.9,30.00,West,276,6.8,9.2,55,0.00,FEW,SKC,0.00,WeatherDisplay:10.37,2013-02-08 17:12:00,
2013-02-08 12:17:00,81.0,63.3,30.00,NW,313,5.2,8.0,55,0.00,FEW,SKC,0.00,WeatherDisplay:10.37,2013-02-08 17:17:00,
2013-02-08 12:22:00,81.1,63.4,30.00,WNW,297,4.1,6.9,55,0.00,FEW,SKC,0.00,WeatherDisplay:10.37,2013-02-08 17:22:00,
2013-02-08 12:27:00,81.6,63.3,30.00,West,274,4.5,8.1,54,0.00,FEW,SKC,0.00,WeatherDisplay:10.37,2013-02-08 17:27:00,
2013-02-08 12:32:00,81.5,62.7,30.00,WNW,300,4.3,6.9,53,0.00,FEW,SKC,0.00,WeatherDisplay:10.37,2013-02-08 17:32:00,
2013-02-08 12:37:00,81.9,60.9,30.00,WNW,297,7.3,9.2,49,0.00,FEW,SKC,0.00,WeatherDisplay:10.37,2013-02-08 17:37:00,
2013-02-08 12:42:00,82.1,61.0,29.99,NW,306,5.6,8.0,49,0.00,FEW,SKC,0.00,WeatherDisplay:10.37,2013-02-08 17:42:00,
2013-02-08 12:47:00,82.3,60.1,29.99,WNW,300,4.8,8.1,47,0.00,FEW,SKC,0.00,WeatherDisplay:10.37,2013-02-08 17:47:00,
2013-02-08 12:52:00,82.5,60.8,29.99,WNW,303,7.7,12.0,48,0.00,FEW,SKC,0.00,WeatherDisplay:10.37,2013-02-08 17:52:00,
2013-02-08 12:57:00,82.2,58.7,29.99,NW,316,6.6,11.5,45,0.00,FEW,SKC,0.00,WeatherDisplay:10.37,2013-02-08 17:57:00,
2013-02-08 13:02:00,83.2,58.4,29.99,NW,314,3.0,4.6,43,0.00,FEW,SKC,0.00,WeatherDisplay:10.37,2013-02-08 18:02:00,
2013-02-08 13:07:00,83.3,57.8,29.99,WNW,288,4.9,8.1,42,0.00,FEW,SKC,0.00,WeatherDisplay:10.37,2013-02-08 18:07:00,
2013-02-08 13:12:00,82.8,58.7,29.99,NW,310,6.5,6.9,44,0.00,FEW,SKC,0.00,WeatherDisplay:10.37,2013-02-08 18:12:00,
2013-02-08 13:17:00,82.9,56.8,29.98,WSW,240,4.2,11.5,41,0.00,CLR,SKC,0.00,WeatherDisplay:10.37,2013-02-08 18:17:00,
2013-02-08 13:22:00,83.3,57.1,29.98,NW,315,5.8,10.4,41,0.00,CLR,SKC,0.00,WeatherDisplay:10.37,2013-02-08 18:22:00,
2013-02-08 13:28:00,83.0,56.9,29.98,WNW,301,7.3,11.5,41,0.00,CLR,SKC,0.00,WeatherDisplay:10.37,2013-02-08 18:28:00,
2013-02-08 13:33:00,82.9,54.0,29.98,West,280,4.2,9.2,37,0.00,CLR,SKC,0.00,WeatherDisplay:10.37,2013-02-08 18:33:00,
2013-02-08 13:38:00,83.3,55.8,29.98,WNW,297,4.3,8.1,39,0.00,CLR,SKC,0.00,WeatherDisplay:10.37,2013-02-08 18:38:00,
2013-02-08 13:43:00,83.3,52.0,29.98,WNW,297,6.4,11.5,34,0.00,CLR,SKC,0.00,WeatherDisplay:10.37,2013-02-08 18:43:00,
2013-02-08 13:48:00,83.3,55.8,29.98,WNW,290,6.3,10.0,39,0.00,CLR,SKC,0.00,WeatherDisplay:10.37,2013-02-08 18:48:00,
2013-02-08 13:54:00,83.0,56.9,29.98,West,264,4.7,10.4,41,0.00,CLR,SKC,0.00,WeatherDisplay:10.37,2013-02-08 18:54:00,
2013-02-08 13:59:00,83.0,56.9,29.98,WNW,283,4.3,5.8,41,0.00,CLR,SKC,0.00,WeatherDisplay:10.37,2013-02-08 18:59:00,
2013-02-08 14:04:00,83.1,57.6,29.97,NW,319,4.2,6.0,42,0.00,CLR,SKC,0.00,WeatherDisplay:10.37,2013-02-08 19:04:00,
2013-02-08 14:09:00,83.1,59.6,29.97,WNW,298,6.2,11.5,45,0.00,CLR,SKC,0.00,WeatherDisplay:10.37,2013-02-08 19:09:00,
2013-02-08 14:14:00,83.2,60.9,29.97,WNW,297,2.8,4.6,47,0.00,CLR,SKC,0.00,WeatherDisplay:10.37,2013-02-08 19:14:00,
2013-02-08 14:19:00,83.2,60.3,29.97,SW,220,5.7,9.2,46,0.00,CLR,SKC,0.00,WeatherDisplay:10.37,2013-02-08 19:19:00,
2013-02-08 14:24:00,83.1,60.2,29.97,WSW,257,5.9,8.1,46,0.00,CLR,SKC,0.00,WeatherDisplay:10.37,2013-02-08 19:24:00,
2013-02-08 14:29:00,83.0,60.1,29.97,West,266,4.1,9.2,46,0.00,CLR,SKC,0.00,WeatherDisplay:10.37,2013-02-08 19:29:00,
2013-02-08 14:34:00,83.2,59.0,29.96,West,281,3.9,6.9,44,0.00,CLR,SKC,0.00,WeatherDisplay:10.37,2013-02-08 19:34:00,
2013-02-08 14:39:00,83.5,59.3,29.96,SW,221,3.0,4.0,44,0.00,CLR,SKC,0.00,WeatherDisplay:10.37,2013-02-08 19:39:00,
2013-02-08 14:44:00,83.4,57.9,29.96,West,271,6.5,11.5,42,0.00,CLR,SKC,0.00,WeatherDisplay:10.37,2013-02-08 19:44:00,
2013-02-08 14:49:00,82.9,56.8,29.96,WNW,287,4.4,9.2,41,0.00,CLR,SKC,0.00,WeatherDisplay:10.37,2013-02-08 19:49:00,
2013-02-08 14:54:00,82.9,56.8,29.96,WNW,283,6.3,10.4,41,0.00,CLR,SKC,0.00,WeatherDisplay:10.37,2013-02-08 19:54:00,
2013-02-08 14:59:00,82.8,55.3,29.96,WSW,257,6.6,12.0,39,0.00,CLR,SKC,0.00,WeatherDisplay:10.37,2013-02-08 19:59:00,
2013-02-08 15:04:00,82.5,56.4,29.96,NW,316,3.8,8.1,41,0.00,CLR,SKC,0.00,WeatherDisplay:10.37,2013-02-08 20:04:00,
2013-02-08 15:09:00,82.7,55.9,29.96,WNW,288,4.8,8.1,40,0.00,CLR,SKC,0.00,WeatherDisplay:10.37,2013-02-08 20:09:00,
2013-02-08 15:14:00,82.8,56.0,29.96,West,273,7.1,12.7,40,0.00,CLR,SKC,0.00,WeatherDisplay:10.37,2013-02-08 20:14:00,
2013-02-08 15:19:00,82.7,55.9,29.96,NW,325,5.9,8.1,40,0.00,CLR,SKC,0.00,WeatherDisplay:10.37,2013-02-08 20:19:00,
2013-02-08 15:24:00,82.7,56.6,29.96,WNW,297,4.9,7.0,41,0.00,CLR,SKC,0.00,WeatherDisplay:10.37,2013-02-08 20:24:00,
2013-02-08 15:29:00,82.5,56.4,29.96,WNW,287,5.0,11.5,41,0.00,CLR,SKC,0.00,WeatherDisplay:10.37,2013-02-08 20:29:00,
2013-02-08 15:34:00,82.3,56.9,29.96,WNW,284,6.2,11.5,42,0.00,CLR,SKC,0.00,WeatherDisplay:10.37,2013-02-08 20:34:00,
2013-02-08 15:39:00,82.1,56.1,29.96,West,260,9.3,13.0,41,0.00,CLR,SKC,0.00,WeatherDisplay:10.37,2013-02-08 20:39:00,
2013-02-08 15:44:00,81.5,55.5,29.96,SW,236,6.0,9.2,41,0.00,CLR,SKC,0.00,WeatherDisplay:10.37,2013-02-08 20:44:00,
2013-02-08 15:49:00,81.3,55.3,29.96,WNW,289,6.9,11.5,41,0.00,CLR,SKC,0.00,WeatherDisplay:10.37,2013-02-08 20:49:00,
2013-02-08 15:54:00,81.6,55.6,29.96,WSW,252,6.2,9.2,41,0.00,CLR,SKC,0.00,WeatherDisplay:10.37,2013-02-08 20:54:00,
2013-02-08 15:59:00,81.4,55.4,29.96,WNW,295,7.1,9.2,41,0.00,CLR,SKC,0.00,WeatherDisplay:10.37,2013-02-08 20:59:00,
2013-02-08 16:04:00,81.0,55.1,29.96,West,277,9.3,11.5,41,0.00,CLR,SKC,0.00,WeatherDisplay:10.37,2013-02-08 21:04:00,
2013-02-08 16:09:00,80.6,55.4,29.96,WNW,297,5.9,12.7,42,0.00,CLR,SKC,0.00,WeatherDisplay:10.37,2013-02-08 21:09:00,
2013-02-08 16:14:00,80.6,55.4,29.96,West,280,6.5,10.0,42,0.00,CLR,SKC,0.00,WeatherDisplay:10.37,2013-02-08 21:14:00,
2013-02-08 16:19:00,80.4,55.9,29.96,West,262,4.5,8.1,43,0.00,CLR,SKC,0.00,WeatherDisplay:10.37,2013-02-08 21:19:00,
2013-02-08 16:24:00,80.3,55.8,29.96,WSW,239,5.4,9.2,43,0.00,CLR,SKC,0.00,WeatherDisplay:10.37,2013-02-08 21:24:00,
2013-02-08 16:29:00,80.3,55.8,29.97,WSW,249,5.4,9.2,43,0.00,CLR,SKC,0.00,WeatherDisplay:10.37,2013-02-08 21:29:00,
2013-02-08 16:34:00,80.1,55.6,29.97,WNW,289,4.7,8.1,43,0.00,CLR,SKC,0.00,WeatherDisplay:10.37,2013-02-08 21:34:00,
2013-02-08 16:39:00,79.7,55.2,29.97,West,278,7.4,11.5,43,0.00,CLR,SKC,0.00,WeatherDisplay:10.37,2013-02-08 21:39:00,
2013-02-08 16:44:00,79.5,55.7,29.96,West,264,6.0,8.1,44,0.00,CLR,SKC,0.00,WeatherDisplay:10.37,2013-02-08 21:44:00,
2013-02-08 16:49:00,79.5,55.7,29.96,WNW,290,4.9,7.0,44,0.00,CLR,SKC,0.00,WeatherDisplay:10.37,2013-02-08 21:49:00,
2013-02-08 16:54:00,79.3,56.1,29.96,WNW,283,5.7,6.9,45,0.00,CLR,SKC,0.00,WeatherDisplay:10.37,2013-02-08 21:54:00,
2013-02-08 16:59:00,79.0,56.5,29.97,WNW,293,5.8,10.4,46,0.00,CLR,SKC,0.00,WeatherDisplay:10.37,2013-02-08 21:59:00,
2013-02-08 17:04:00,78.7,56.2,29.97,WNW,293,6.7,11.5,46,0.00,CLR,SKC,0.00,WeatherDisplay:10.37,2013-02-08 22:04:00,
2013-02-08 17:09:00,78.3,57.0,29.97,WNW,283,4.0,9.2,48,0.00,CLR,SKC,0.00,WeatherDisplay:10.37,2013-02-08 22:09:00,
2013-02-08 17:14:00,77.9,57.2,29.97,WSW,257,3.4,6.9,49,0.00,CLR,SKC,0.00,WeatherDisplay:10.37,2013-02-08 22:14:00,
2013-02-08 17:19:00,77.7,58.1,29.97,WNW,287,4.2,8.1,51,0.00,CLR,SKC,0.00,WeatherDisplay:10.37,2013-02-08 22:19:00,
2013-02-08 17:24:00,77.5,58.5,29.97,West,276,2.1,5.8,52,0.00,CLR,SKC,0.00,WeatherDisplay:10.37,2013-02-08 22:24:00,
2013-02-08 17:29:00,77.1,58.1,29.97,West,276,3.9,5.8,52,0.00,CLR,SKC,0.00,WeatherDisplay:10.37,2013-02-08 22:29:00,
2013-02-08 17:34:00,76.7,58.8,29.97,WSW,249,2.5,4.6,54,0.00,CLR,SKC,0.00,WeatherDisplay:10.37,2013-02-08 22:34:00,
2013-02-08 17:39:00,76.2,59.4,29.97,WNW,303,5.1,5.8,56,0.00,CLR,SKC,0.00,WeatherDisplay:10.37,2013-02-08 22:39:00,
2013-02-08 17:44:00,75.7,59.4,29.97,West,274,5.2,8.1,57,0.00,CLR,SKC,0.00,WeatherDisplay:10.37,2013-02-08 22:44:00,
2013-02-08 17:49:00,74.9,59.6,29.98,SW,226,3.8,8.1,59,0.00,CLR,SKC,0.00,WeatherDisplay:10.37,2013-02-08 22:49:00,
2013-02-08 17:54:00,74.3,60.0,29.98,West,271,4.4,6.9,61,0.00,CLR,SKC,0.00,WeatherDisplay:10.37,2013-02-08 22:54:00,
2013-02-08 17:59:00,73.7,60.3,29.98,SW,215,3.9,7.0,63,0.00,CLR,SKC,0.00,WeatherDisplay:10.37,2013-02-08 22:59:00,
2013-02-08 18:04:00,73.0,60.5,29.98,WNW,284,3.7,8.1,65,0.00,CLR,SKC,0.00,WeatherDisplay:10.37,2013-02-08 23:04:00,
2013-02-08 18:09:00,72.5,60.5,29.98,West,274,4.4,4.6,66,0.00,CLR,SKC,0.00,WeatherDisplay:10.37,2013-02-08 23:09:00,
2013-02-08 18:14:00,72.2,60.6,29.98,WNW,287,1.5,3.5,67,0.00,CLR,SKC,0.00,WeatherDisplay:10.37,2013-02-08 23:14:00,
2013-02-08 18:19:00,71.7,60.6,29.98,WSW,245,1.2,3.0,68,0.00,CLR,SKC,0.00,WeatherDisplay:10.37,2013-02-08 23:19:00,
2013-02-08 18:24:00,71.3,60.6,29.98,West,270,0.9,2.3,69,0.00,CLR,SKC,0.00,WeatherDisplay:10.37,2013-02-08 23:24:00,
2013-02-08 18:29:00,70.9,60.6,29.99,West,264,0.4,1.1,70,0.00,CLR,SKC,0.00,WeatherDisplay:10.37,2013-02-08 23:29:00,
2013-02-08 18:34:00,70.6,60.7,29.99,West,277,0.9,2.3,71,0.00,CLR,SKC,0.00,WeatherDisplay:10.37,2013-02-08 23:34:00,
2013-02-08 18:39:00,70.5,60.6,29.99,WNW,285,1.4,3.5,71,0.00,CLR,SKC,0.00,WeatherDisplay:10.37,2013-02-08 23:39:00,
2013-02-08 18:44:00,70.2,60.4,29.99,WNW,290,0.7,2.3,71,0.00,CLR,SKC,0.00,WeatherDisplay:10.37,2013-02-08 23:44:00,
2013-02-08 18:49:00,69.9,60.5,29.99,WNW,285,0.9,2.3,72,0.00,CLR,SKC,0.00,WeatherDisplay:10.37,2013-02-08 23:49:00,
2013-02-08 18:54:00,69.6,60.2,29.99,WNW,300,0.8,2.0,72,0.00,CLR,SKC,0.00,WeatherDisplay:10.37,2013-02-08 23:54:00,
2013-02-08 18:59:00,69.1,60.1,29.99,West,262,0.4,1.1,73,0.00,CLR,SKC,0.00,WeatherDisplay:10.37,2013-02-08 23:59:00,
2013-02-08 19:04:00,68.7,60.1,29.99,West,269,0.3,1.1,74,0.00,CLR,SKC,0.00,WeatherDisplay:10.37,2013-02-09 00:04:00,
2013-02-08 19:09:00,68.5,60.3,29.99,West,270,0.0,1.0,75,0.00,CLR,SKC,0.00,WeatherDisplay:10.37,2013-02-09 00:09:00,
2013-02-08 19:14:00,68.2,60.0,29.99,West,271,0.1,1.1,75,0.00,CLR,SKC,0.00,WeatherDisplay:10.37,2013-02-09 00:14:00,
2013-02-08 19:19:00,67.9,60.1,30.00,West,271,0.0,0.0,76,0.00,CLR,SKC,0.00,WeatherDisplay:10.37,2013-02-09 00:19:00,
2013-02-08 19:24:00,67.6,60.1,30.00,West,271,0.1,1.1,77,0.00,CLR,SKC,0.00,WeatherDisplay:10.37,2013-02-09 00:24:00,
2013-02-08 19:29:00,67.4,60.3,30.00,West,277,0.0,0.0,78,0.00,CLR,SKC,0.00,WeatherDisplay:10.37,2013-02-09 00:29:00,
2013-02-08 19:34:00,67.2,60.1,30.00,West,277,0.0,1.1,78,0.00,CLR,SKC,0.00,WeatherDisplay:10.37,2013-02-09 00:34:00,
2013-02-08 19:39:00,66.9,60.2,30.00,West,276,0.3,1.1,79,0.00,CLR,SKC,0.00,WeatherDisplay:10.37,2013-02-09 00:39:00,
2013-02-08 19:44:00,66.6,60.2,30.01,West,276,0.0,1.1,80,0.00,CLR,SKC,0.00,WeatherDisplay:10.37,2013-02-09 00:44:00,
2013-02-08 19:49:00,66.4,60.4,30.00,West,266,0.4,1.1,81,0.00,CLR,SKC,0.00,WeatherDisplay:10.37,2013-02-09 00:49:00,
2013-02-08 19:54:00,66.3,60.3,30.01,WNW,299,1.1,2.3,81,0.00,CLR,SKC,0.00,WeatherDisplay:10.37,2013-02-09 00:54:00,
2013-02-08 19:59:00,66.2,60.2,30.01,West,273,0.5,1.1,81,0.00,CLR,SKC,0.00,WeatherDisplay:10.37,2013-02-09 00:59:00,
2013-02-08 20:04:00,65.9,60.2,30.01,WNW,283,0.8,2.3,82,0.00,CLR,SKC,0.00,WeatherDisplay:10.37,2013-02-09 01:04:00,
2013-02-08 20:09:00,65.6,60.3,30.02,WNW,285,0.2,1.1,83,0.00,CLR,SKC,0.00,WeatherDisplay:10.37,2013-02-09 01:09:00,
2013-02-08 20:15:00,65.6,60.3,30.02,West,260,0.8,3.0,83,0.00,CLR,SKC,0.00,WeatherDisplay:10.37,2013-02-09 01:15:00,
2013-02-08 20:20:00,65.6,60.6,30.02,WNW,290,0.9,2.3,84,0.00,CLR,SKC,0.00,WeatherDisplay:10.37,2013-02-09 01:20:00,
2013-02-08 20:25:00,65.6,61.0,30.02,WNW,296,1.2,2.3,85,0.00,CLR,SKC,0.00,WeatherDisplay:10.37,2013-02-09 01:25:00,
2013-02-08 20:30:00,65.5,60.9,30.02,WNW,288,0.2,1.1,85,0.00,CLR,SKC,0.00,WeatherDisplay:10.37,2013-02-09 01:30:00,
2013-02-08 20:35:00,65.3,60.7,30.03,WNW,285,1.2,2.3,85,0.00,CLR,SKC,0.00,WeatherDisplay:10.37,2013-02-09 01:35:00,
2013-02-08 20:40:00,64.9,60.3,30.03,West,273,0.9,2.3,85,0.00,CLR,SKC,0.00,WeatherDisplay:10.37,2013-02-09 01:40:00,
2013-02-08 20:45:00,64.7,60.4,30.03,WNW,295,1.0,2.3,86,0.00,CLR,SKC,0.00,WeatherDisplay:10.37,2013-02-09 01:45:00,
2013-02-08 20:50:00,64.6,60.6,30.03,NW,309,2.4,3.5,87,0.00,CLR,SKC,0.00,WeatherDisplay:10.37,2013-02-09 01:50:00,
2013-02-08 20:56:00,64.7,61.1,30.03,NW,311,2.9,5.0,88,0.00,CLR,SKC,0.00,WeatherDisplay:10.37,2013-02-09 01:56:00,
2013-02-08 21:01:00,64.9,61.6,30.04,WNW,297,3.3,4.6,89,0.00,CLR,SKC,0.00,WeatherDisplay:10.37,2013-02-09 02:01:00,
2013-02-08 21:06:00,64.9,61.6,30.04,NW,304,3.1,5.0,89,0.00,CLR,SKC,0.00,WeatherDisplay:10.37,2013-02-09 02:06:00,
2013-02-08 21:11:00,64.9,61.9,30.04,WNW,303,2.4,5.0,90,0.00,CLR,SKC,0.00,WeatherDisplay:10.37,2013-02-09 02:11:00,
2013-02-08 21:16:00,64.8,61.8,30.05,NW,323,1.1,2.0,90,0.00,CLR,SKC,0.00,WeatherDisplay:10.37,2013-02-09 02:16:00,
2013-02-08 21:21:00,64.7,61.7,30.05,NW,308,2.2,4.0,90,0.00,CLR,SKC,0.00,WeatherDisplay:10.37,2013-02-09 02:21:00,
2013-02-08 21:26:00,64.6,61.9,30.05,WNW,300,2.4,3.5,91,0.00,CLR,SKC,0.00,WeatherDisplay:10.37,2013-02-09 02:26:00,
2013-02-08 21:31:00,64.5,61.8,30.05,WNW,290,3.6,3.6,91,0.00,CLR,SKC,0.00,WeatherDisplay:10.37,2013-02-09 02:31:00,
2013-02-08 21:36:00,64.4,61.7,30.05,NW,316,3.3,4.6,91,0.00,CLR,SKC,0.00,WeatherDisplay:10.37,2013-02-09 02:36:00,
2013-02-08 21:41:00,64.3,61.9,30.05,WNW,303,3.5,5.8,92,0.00,CLR,SKC,0.00,WeatherDisplay:10.37,2013-02-09 02:41:00,
2013-02-08 21:46:00,64.2,61.8,30.05,WNW,301,2.8,4.6,92,0.00,CLR,SKC,0.00,WeatherDisplay:10.37,2013-02-09 02:46:00,
2013-02-08 21:51:00,64.1,61.7,30.06,NW,316,2.9,7.0,92,0.00,CLR,SKC,0.00,WeatherDisplay:10.37,2013-02-09 02:51:00,
2013-02-08 21:56:00,64.1,61.7,30.06,NNW,339,5.0,8.1,92,0.00,CLR,SKC,0.00,WeatherDisplay:10.37,2013-02-09 02:56:00,
2013-02-08 22:01:00,64.0,61.6,30.06,WNW,291,3.7,4.6,92,0.00,CLR,SKC,0.00,WeatherDisplay:10.37,2013-02-09 03:01:00,
2013-02-08 22:06:00,63.8,61.4,30.06,NW,317,5.2,8.0,92,0.00,CLR,SKC,0.00,WeatherDisplay:10.37,2013-02-09 03:06:00,
2013-02-08 22:11:00,63.6,61.2,30.06,NW,311,5.9,9.2,92,0.00,CLR,SKC,0.00,WeatherDisplay:10.37,2013-02-09 03:11:00,
2013-02-08 22:16:00,63.5,61.1,30.06,NW,304,4.4,4.6,92,0.00,CLR,SKC,0.00,WeatherDisplay:10.37,2013-02-09 03:16:00,
2013-02-08 22:21:00,63.3,60.9,30.06,NW,311,4.3,5.8,92,0.00,CLR,SKC,0.00,WeatherDisplay:10.37,2013-02-09 03:21:00,
2013-02-08 22:26:00,63.2,61.1,30.06,NW,308,4.3,6.9,93,0.00,CLR,SKC,0.00,WeatherDisplay:10.37,2013-02-09 03:26:00,
2013-02-08 22:31:00,63.1,61.0,30.06,NW,309,3.3,4.6,93,0.00,CLR,SKC,0.00,WeatherDisplay:10.37,2013-02-09 03:31:00,
2013-02-08 22:36:00,62.9,60.8,30.06,WNW,301,4.8,5.0,93,0.00,CLR,SKC,0.00,WeatherDisplay:10.37,2013-02-09 03:36:00,
2013-02-08 22:41:00,62.8,60.7,30.06,NW,326,1.8,2.3,93,0.00,CLR,SKC,0.00,WeatherDisplay:10.37,2013-02-09 03:41:00,
2013-02-08 22:46:00,62.6,60.5,30.06,NW,315,3.9,5.8,93,0.00,CLR,SKC,0.00,WeatherDisplay:10.37,2013-02-09 03:46:00,
2013-02-08 22:51:00,62.4,60.3,30.06,WNW,290,2.7,5.0,93,0.00,CLR,SKC,0.00,WeatherDisplay:10.37,2013-02-09 03:51:00,
2013-02-08 22:56:00,62.3,60.2,30.06,NNW,342,3.1,8.0,93,0.00,CLR,SKC,0.00,WeatherDisplay:10.37,2013-02-09 03:56:00,
2013-02-08 23:01:00,62.1,60.1,30.06,NW,314,1.8,2.3,93,0.00,CLR,SKC,0.00,WeatherDisplay:10.37,2013-02-09 04:01:00,
2013-02-08 23:06:00,61.9,59.9,30.07,NW,311,2.6,3.5,93,0.00,CLR,SKC,0.00,WeatherDisplay:10.37,2013-02-09 04:06:00,
2013-02-08 23:11:00,61.7,59.7,30.06,WNW,298,0.8,3.5,93,0.00,CLR,SKC,0.00,WeatherDisplay:10.37,2013-02-09 04:11:00,
2013-02-08 23:16:00,61.5,59.5,30.06,NW,325,0.4,3.5,93,0.00,CLR,SKC,0.00,WeatherDisplay:10.37,2013-02-09 04:16:00,
2013-02-08 23:21:00,61.3,59.3,30.07,NW,321,1.7,3.0,93,0.00,CLR,SKC,0.00,WeatherDisplay:10.37,2013-02-09 04:21:00,
2013-02-08 23:26:00,61.1,59.1,30.07,NW,315,2.4,4.6,93,0.00,CLR,SKC,0.00,WeatherDisplay:10.37,2013-02-09 04:26:00,
2013-02-08 23:31:00,61.0,59.0,30.07,NNW,346,1.5,3.5,93,0.00,CLR,SKC,0.00,WeatherDisplay:10.37,2013-02-09 04:31:00,
2013-02-08 23:36:00,60.8,58.8,30.07,NNW,343,1.0,3.5,93,0.00,CLR,SKC,0.00,WeatherDisplay:10.37,2013-02-09 04:36:00,
2013-02-08 23:41:00,60.6,58.6,30.07,NW,308,2.8,3.5,93,0.00,CLR,SKC,0.00,WeatherDisplay:10.37,2013-02-09 04:41:00,
2013-02-08 23:46:00,60.5,58.5,30.07,NW,308,1.6,3.5,93,0.00,CLR,SKC,0.00,WeatherDisplay:10.37,2013-02-09 04:46:00,
2013-02-08 23:51:00,60.3,58.3,30.07,NNW,329,3.8,5.8,93,0.00,CLR,SKC,0.00,WeatherDisplay:10.37,2013-02-09 04:51:00,
2013-02-08 23:56:00,60.3,58.3,30.07,NNW,341,2.0,4.6,93,0.00,CLR,SKC,0.00,WeatherDisplay:10.37,2013-02-09 04:56:00,